Site contains unofficial IBTrACS data. Visit the IBTrACS Website to access archived data.

1922 NOT_NAMED (1922074S14126)


IBTrACS version v04r00. Visit IBTrACS website for data access.
Please direct all questions to the IBTrACS Q and A forum

Storm track - Intensity - Wind Radii - Intensity Data - Source Data - All data

Summary Information

Storm ID 1922074S14126
Start Mar 14 23Z
End Mar 16 23Z
ATCF IDs
Track status Best track data.

Storm track plot

Map of storm track

Intensity plots

No Intensity information for this storm


Radial wind information

No radial wind information for this storm


Position and Intensity Table

BASIN ISO_TIME_________ NATURE LAT LON
degrees north degrees east
SI 1922-03-14 23:00:00 NR -13.60 126.40
SI 1922-03-15 00:00:00 NR -13.61 126.38
SI 03:00:00 NR -13.63 126.32
SI 06:00:00 NR -13.66 126.26
SI 09:00:00 NR -13.68 126.22
SI 11:00:00 NR -13.70 126.20
SI 12:00:00 NR -13.71 126.19
SI 15:00:00 NR -13.73 126.18
SI 18:00:00 NR -13.76 126.17
SI 21:00:00 NR -13.78 126.14
SI 23:00:00 NR -13.80 126.10
SI 1922-03-16 00:00:00 NR -13.81 126.07
SI 03:00:00 NR -13.83 125.97
SI 06:00:00 NR -13.86 125.84
SI 09:00:00 NR -13.88 125.70
SI 11:00:00 NR -13.90 125.60
SI 12:00:00 NR -13.91 125.55
SI 15:00:00 NR -13.93 125.40
SI 18:00:00 NR -13.96 125.25
SI 21:00:00 NR -13.98 125.10
SI 23:00:00 NR -14.00 125.00

Source Information

Agency Information
USA
TOKYO
CMA
HKO
NEWDELHI
REUNION
BOM
NADI
WELLINGTON
DS824
TD9636 cons_worldwide_trop_cyclone_18710101-19891231-006:Line=1327
TD9635
NEUMANN
MLC

All available IBTrACS Data

SEASON BASIN SUBBASIN ISO_TIME_________ NATURE LAT LON DIST2LAND LANDFALL IFLAG USA SSHS TD9636 LAT TD9636 LON TD9636 STAGE STORM SPEED STORM DIR
Year degrees north degrees east km km 1 degrees north degrees east kts degrees
1922 SI WA 1922-03-14 23:00:00 NR -13.60 126.40 44 44 __________O___ -1 -13.60 126.40 7 1 0
1922 SI WA 1922-03-15 00:00:00 NR -13.61 126.38 44 44 __________P___ -1 -13.61 126.38 7 1 248
1922 SI WA 03:00:00 NR -13.63 126.32 44 33 __________P___ -1 -13.63 126.32 7 1 246
1922 SI WA 06:00:00 NR -13.66 126.26 33 33 __________P___ -1 -13.66 126.26 7 1 243
1922 SI WA 09:00:00 NR -13.68 126.22 35 35 __________P___ -1 -13.68 126.22 7 1 233
1922 SI WA 11:00:00 NR -13.70 126.20 35 35 __________O___ -1 -13.70 126.20 7 1 0
1922 SI WA 12:00:00 NR -13.71 126.19 35 35 __________P___ -1 -13.71 126.19 7 1 213
1922 SI WA 15:00:00 NR -13.73 126.18 35 24 __________P___ -1 -13.73 126.18 7 1 207
1922 SI WA 18:00:00 NR -13.76 126.17 24 22 __________P___ -1 -13.76 126.17 7 1 223
1922 SI WA 21:00:00 NR -13.78 126.14 22 22 __________P___ -1 -13.78 126.14 7 1 238
1922 SI WA 23:00:00 NR -13.80 126.10 22 22 __________O___ -1 -13.80 126.10 7 1 243
1922 SI WA 1922-03-16 00:00:00 NR -13.81 126.07 22 22 __________P___ -1 -13.81 126.07 7 2 255
1922 SI WA 03:00:00 NR -13.83 125.97 24 24 __________P___ -1 -13.83 125.97 7 2 257
1922 SI WA 06:00:00 NR -13.86 125.84 31 31 __________P___ -1 -13.86 125.84 7 3 259
1922 SI WA 09:00:00 NR -13.88 125.70 39 39 __________P___ -1 -13.88 125.70 7 3 260
1922 SI WA 11:00:00 NR -13.90 125.60 44 44 __________O___ -1 -13.90 125.60 7 3 260
1922 SI WA 12:00:00 NR -13.91 125.55 44 44 __________P___ -1 -13.91 125.55 7 3 260
1922 SI WA 15:00:00 NR -13.93 125.40 49 46 __________P___ -1 -13.93 125.40 7 3 260
1922 SI WA 18:00:00 NR -13.96 125.25 46 46 __________P___ -1 -13.96 125.25 7 3 260
1922 SI WA 21:00:00 NR -13.98 125.10 63 63 __________P___ -1 -13.98 125.10 7 3 260
1922 SI WA 23:00:00 NR -14.00 125.00 70 __________O___ -1 -14.00 125.00 7 3 260